Track Макаров Николай

Time Latitude Longitude Accuracy (66% radius in meters) Altitude (meters) Speed (km/hour) Bearing (degrees) Battery (%) GPS flag
09:31:19 55.921018 37.361944 6 182 1.2561296224594 84.203956604004 44 1 delete
09:31:11 55.920972 37.361944 4 183 1.0198616981506 344.57781982422 44 1 delete
09:30:54 55.920926 37.361932 6 176 2.8361382484436 56.408046722412 44 1 delete
09:30:52 55.920892 37.361826 4 175 3.7972571849823 54.294036865234 44 1 delete
09:30:50 55.920857 37.361729 4 173 4.2539901733398 53.626251220703 44 1 delete
09:30:48 55.920817 37.361621 4 172 4.3399510383606 50.482780456543 44 1 delete
09:30:46 55.920774 37.361516 4 173 3.9643774032593 50.467082977295 44 1 delete
09:30:44 55.920735 37.361422 4 172 4.0304064750671 49.667236328125 44 1 delete
09:30:42 55.920686 37.361311 4 171 4.0890307426453 45.875442504883 44 1 delete
09:30:40 55.920635 37.361209 4 168 4.002631187439 44.9411277771 44 1 delete
09:30:38 55.920581 37.361101 4 170 3.9146132469177 46.498203277588 44 1 delete
09:30:36 55.920530 37.361002 4 171 3.8463132381439 44.708263397217 44 1 delete
09:30:34 55.920478 37.360919 6 173 3.915456533432 41.591217041016 44 1 delete
09:30:32 55.920412 37.360875 4 174 4.2663111686707 5.6838793754578 44 1 delete
09:30:30 55.920337 37.360891 4 174 4.8354840278625 350.27432250977 44 1 delete
09:30:28 55.920254 37.360925 6 176 4.9401550292969 356.81161499023 44 1 delete
09:30:27 55.920210 37.360934 6 176 5.4421772956848 358.50500488281 44 1 delete
09:30:26 55.920161 37.360941 6 177 5.4347171783447 359.53149414062 44 1 delete
09:30:25 55.920109 37.360947 6 178 5.1458024978638 0.87895721197128 44 1 delete
09:30:24 55.920060 37.360947 6 178 4.9282717704773 1.4255667924881 44 1 delete
09:30:23 55.920011 37.360944 6 179 4.8944082260132 1.9084850549698 44 1 delete
09:30:22 55.919957 37.360944 6 178 4.6632227897644 3.1228766441345 44 1 delete
09:30:21 55.919906 37.360942 6 178 4.7842497825623 4.3506116867065 44 1 delete
09:30:20 55.919860 37.360942 6 177 4.9264764785767 18.991899490356 44 1 delete
09:30:18 55.919777 37.360903 6 178 4.3572764396667 21.993032455444 44 1 delete
09:30:16 55.919705 37.360866 6 173 4.6945476531982 22.770877838135 44 1 delete
09:30:14 55.919627 37.360820 8 173 4.6973743438721 27.06636428833 44 1 delete
09:30:12 55.919546 37.360761 8 173 4.5095591545105 31.369791030884 44 1 delete
09:30:10 55.919473 37.360697 6 175 3.9148786067963 37.704326629639 44 1 delete
09:30:08 55.919408 37.360615 6 170 3.9456419944763 43.47331237793 44 1 delete
09:30:06 55.919353 37.360521 6 166 4.0370187759399 68.093620300293 44 1 delete
09:30:04 55.919330 37.360402 6 165 4.3271107673645 72.229682922363 44 1 delete
09:30:02 55.919314 37.360278 6 164 4.7260184288025 71.631851196289 44 1 delete
09:30:00 55.919291 37.360139 6 167 4.954879283905 68.368232727051 44 1 delete
09:29:59 55.919275 37.360062 4 168 4.9109239578247 67.675094604492 44 1 delete
09:29:58 55.919258 37.359985 4 169 5.3782181739807 66.838195800781 44 1 delete
09:29:57 55.919241 37.359900 4 170 5.5819463729858 65.06721496582 44 1 delete
09:29:56 55.919223 37.359816 4 169 5.9788565635681 61.816226959229 44 1 delete
09:29:55 55.919199 37.359730 4 168 6.1100435256958 60.060573577881 44 1 delete
09:29:54 55.919172 37.359638 4 168 6.1790823936462 58.642688751221 44 1 delete
09:29:53 55.919144 37.359553 4 167 6.2365255355835 57.419925689697 44 1 delete
09:29:52 55.919115 37.359468 6 167 6.4285473823547 56.250385284424 44 1 delete
09:29:51 55.919084 37.359385 6 167 6.5394940376282 55.347507476807 44 1 delete
09:29:50 55.919051 37.359307 6 167 6.4465575218201 54.539730072021 44 1 delete
09:29:49 55.919018 37.359220 6 167 6.4116415977478 53.580032348633 44 1 delete
09:29:48 55.918980 37.359128 8 167 6.4658784866333 53.179340362549 44 1 delete
09:29:47 55.918946 37.359042 6 167 6.4408087730408 53.515361785889 44 1 delete
09:29:46 55.918915 37.358969 8 169 6.5741515159607 53.72486114502 44 1 delete
09:29:45 55.918879 37.358883 6 168 6.5312113761902 53.333267211914 44 1 delete
09:29:44 55.918842 37.358796 6 168 6.4129128456116 52.969318389893 44 1 delete